Time;durP1;ratioP1;P1;durP2;ratioP2;P2;SDS_P1;SDS_P2;PMS_P1;PMS_P2;Temp;Humidity;BMP_temperature;BMP_pressure;BME280_temperature;BME280_humidity;BME280_pressure;Samples;Min_cycle;Max_cycle;Signal;HPM_P1;HPM_P2
2023/11/25 00:00:47;;;;;;;1.67;0.17;;;21.80;38.40;22.40;101865.00;;;;5017261;28;20021;-44
2023/11/25 00:03:14;;;;;;;1.35;0.15;;;21.70;38.30;22.40;101862.00;;;;5017515;28;20036;-41
2023/11/25 00:05:40;;;;;;;1.92;0.45;;;21.70;38.40;22.40;101864.00;;;;5018292;28;20040;-44
2023/11/25 00:08:07;;;;;;;0.63;0.10;;;21.70;38.30;22.40;101862.00;;;;5017409;28;20044;-44
2023/11/25 00:10:33;;;;;;;0.85;0.30;;;21.70;38.30;22.40;101856.00;;;;5018465;28;20038;-44
2023/11/25 00:13:01;;;;;;;1.20;0.10;;;21.70;38.40;22.40;101857.00;;;;5002156;28;20030;-43
2023/11/25 00:15:28;;;;;;;0.88;0.20;;;21.70;38.30;22.40;101852.00;;;;5016969;28;20545;-43
2023/11/25 00:17:54;;;;;;;1.73;0.32;;;21.70;38.10;22.40;101848.00;;;;4999313;28;20057;-44
2023/11/25 00:20:22;;;;;;;2.25;0.30;;;21.70;38.30;22.40;101849.00;;;;5017910;28;20115;-42
2023/11/25 00:22:48;;;;;;;0.95;0.10;;;21.70;38.30;22.40;101855.00;;;;5024478;28;20038;-42
2023/11/25 00:25:15;;;;;;;2.10;0.30;;;21.70;38.20;22.40;101855.00;;;;5017725;28;20066;-44
2023/11/25 00:27:42;;;;;;;1.05;0.10;;;21.70;38.30;22.40;101849.00;;;;5008731;28;20088;-47
2023/11/25 00:30:08;;;;;;;2.35;0.20;;;21.70;38.40;22.40;101857.00;;;;5025737;28;20052;-46
2023/11/25 00:32:37;;;;;;;1.10;0.63;;;21.70;38.30;22.40;101848.00;;;;5015716;28;20475;-46
2023/11/25 00:35:08;;;;;;;1.20;0.10;;;21.70;38.30;22.40;101854.00;;;;5016951;28;20061;-44
2023/11/25 00:37:35;;;;;;;0.32;0.20;;;21.70;38.20;22.40;101853.00;;;;5008259;28;20071;-46
2023/11/25 00:40:04;;;;;;;2.05;0.63;;;21.70;38.30;22.40;101844.00;;;;5017320;28;20204;-43
2023/11/25 00:42:31;;;;;;;2.00;0.20;;;21.60;38.20;22.30;101846.00;;;;5024247;28;20413;-44
2023/11/25 00:44:57;;;;;;;0.80;0.10;;;21.60;38.20;22.30;101851.00;;;;5000358;28;20041;-47
2023/11/25 00:47:23;;;;;;;1.20;0.35;;;21.60;38.20;22.30;101851.00;;;;5016043;28;20402;-45
2023/11/25 00:49:49;;;;;;;0.30;0.10;;;21.60;38.20;22.30;101857.00;;;;5015484;28;20106;-44
2023/11/25 00:52:17;;;;;;;0.52;0.10;;;21.70;38.20;22.30;101855.00;;;;5016608;28;20049;-43
2023/11/25 00:54:43;;;;;;;1.25;0.20;;;21.60;38.10;22.30;101849.00;;;;5015295;28;20037;-43
2023/11/25 00:57:09;;;;;;;0.73;0.10;;;21.60;38.20;22.30;101856.00;;;;5023591;28;20039;-43
2023/11/25 00:59:35;;;;;;;0.30;0.10;;;21.60;38.00;22.30;101850.00;;;;5016780;28;20433;-46
2023/11/25 01:02:01;;;;;;;1.75;0.20;;;21.60;38.10;22.30;101854.00;;;;5014871;28;20030;-44
2023/11/25 01:04:27;;;;;;;1.65;0.20;;;21.60;38.20;22.30;101850.00;;;;4999026;28;20120;-45
2023/11/25 01:06:53;;;;;;;2.33;0.10;;;21.60;38.20;22.30;101846.00;;;;4983610;28;20827;-44
2023/11/25 01:09:19;;;;;;;0.47;0.10;;;21.60;38.20;22.30;101840.00;;;;5000128;28;20496;-43
2023/11/25 01:11:46;;;;;;;2.05;0.20;;;21.60;38.20;22.30;101846.00;;;;4998847;28;20391;-44
2023/11/25 01:14:12;;;;;;;0.50;0.10;;;21.60;38.20;22.30;101849.00;;;;5008185;28;20060;-44
2023/11/25 01:16:39;;;;;;;0.40;0.10;;;21.60;38.20;22.30;101856.00;;;;5015034;28;20513;-44
2023/11/25 01:19:05;;;;;;;0.17;0.10;;;21.60;38.10;22.30;101847.00;;;;5016750;28;20034;-44
2023/11/25 01:21:31;;;;;;;0.30;0.10;;;21.60;38.10;22.30;101861.00;;;;5023128;28;20160;-43
2023/11/25 01:23:57;;;;;;;1.10;0.10;;;21.50;38.10;22.30;101854.00;;;;4999840;28;20100;-44
2023/11/25 01:26:23;;;;;;;1.65;0.63;;;21.60;38.20;22.30;101864.00;;;;5015852;28;20367;-45
2023/11/25 01:28:49;;;;;;;1.13;0.10;;;21.60;38.20;22.30;101859.00;;;;5015435;28;20062;-45
2023/11/25 01:31:15;;;;;;;1.48;0.10;;;21.50;38.10;22.30;101856.00;;;;5015890;28;20048;-47
2023/11/25 01:33:41;;;;;;;2.10;0.10;;;21.50;38.10;22.20;101861.00;;;;5016987;28;20033;-48
2023/11/25 01:36:11;;;;;;;0.75;0.52;;;21.50;38.10;22.20;101876.00;;;;5015439;28;20073;-46
2023/11/25 01:38:38;;;;;;;5.25;0.68;;;21.50;38.10;22.20;101870.00;;;;5016121;28;20033;-49
2023/11/25 01:41:06;;;;;;;0.57;0.10;;;21.50;38.10;22.20;101862.00;;;;5015153;28;20048;-46
2023/11/25 01:43:32;;;;;;;0.75;0.10;;;21.50;38.10;22.20;101879.00;;;;5023044;28;20145;-45
2023/11/25 01:46:01;;;;;;;0.20;0.20;;;21.50;38.00;22.20;101878.00;;;;5017338;28;20037;-45
2023/11/25 01:48:31;;;;;;;0.28;0.10;;;21.50;38.00;22.20;101878.00;;;;5015526;28;20107;-43
2023/11/25 01:50:58;;;;;;;1.98;0.10;;;21.50;38.00;22.20;101876.00;;;;5007213;28;20052;-44
2023/11/25 01:53:26;;;;;;;0.47;0.10;;;21.50;38.00;22.20;101874.00;;;;5015315;28;20053;-43
2023/11/25 01:55:54;;;;;;;1.20;0.10;;;21.50;38.10;22.20;101875.00;;;;5024195;28;20382;-44
2023/11/25 01:58:20;;;;;;;0.63;0.10;;;21.50;38.00;22.20;101874.00;;;;4997740;28;20052;-44
2023/11/25 02:00:47;;;;;;;1.27;0.10;;;21.50;38.10;22.20;101875.00;;;;5006327;28;20057;-44
2023/11/25 02:03:13;;;;;;;0.98;0.82;;;21.50;38.00;22.20;101873.00;;;;5015229;28;20039;-43
2023/11/25 02:05:40;;;;;;;1.60;0.20;;;21.50;38.10;22.20;101872.00;;;;5015995;28;20490;-44
2023/11/25 02:08:07;;;;;;;1.05;0.10;;;21.50;38.10;22.20;101869.00;;;;5015428;28;20037;-45
2023/11/25 02:10:36;;;;;;;2.25;0.10;;;21.40;38.00;22.20;101863.00;;;;5006618;28;20049;-43
2023/11/25 02:13:04;;;;;;;0.45;0.10;;;21.50;38.00;22.20;101874.00;;;;5015116;28;20126;-44
2023/11/25 02:15:32;;;;;;;0.13;0.13;;;21.50;38.70;22.20;101876.00;;;;4981938;28;20121;-44
2023/11/25 02:17:58;;;;;;;0.95;0.10;;;21.50;38.10;22.20;101862.00;;;;5006764;28;20033;-43
2023/11/25 02:20:36;;;;;;;3.33;0.52;;;21.40;38.00;22.20;101865.00;;;;5014898;28;20042;-44
2023/11/25 02:23:04;;;;;;;0.65;0.10;;;21.40;38.00;22.20;101870.00;;;;5006514;28;20490;-44
2023/11/25 02:25:31;;;;;;;0.98;0.57;;;21.40;38.10;22.20;101869.00;;;;5014324;28;20096;-44
2023/11/25 02:27:57;;;;;;;1.02;0.77;;;21.40;38.00;22.20;101869.00;;;;4997900;28;20537;-43
2023/11/25 02:30:23;;;;;;;0.82;0.65;;;21.40;38.00;22.20;101854.00;;;;5015949;28;20042;-44
2023/11/25 02:32:50;;;;;;;0.77;0.05;;;21.40;38.00;22.20;101863.00;;;;5015393;28;20116;-46
2023/11/25 02:35:17;;;;;;;0.32;0.10;;;21.40;38.00;22.20;101856.00;;;;4998514;28;20041;-44
2023/11/25 02:37:46;;;;;;;0.40;0.20;;;21.40;37.90;22.10;101873.00;;;;5013832;28;20050;-44
2023/11/25 02:40:16;;;;;;;0.73;0.10;;;21.40;38.00;22.10;101860.00;;;;4997567;28;20041;-45
2023/11/25 02:42:47;;;;;;;0.45;0.10;;;21.40;37.90;22.10;101863.00;;;;5015350;28;21703;-46
2023/11/25 02:45:22;;;;;;;0.22;0.10;;;21.40;38.00;22.10;101875.00;;;;5015187;28;20038;-45
2023/11/25 02:47:50;;;;;;;1.70;0.20;;;21.40;38.10;22.10;101860.00;;;;5022116;28;20037;-46
2023/11/25 02:50:17;;;;;;;0.95;0.10;;;21.40;37.90;22.10;101863.00;;;;5014150;28;20072;-49
2023/11/25 02:52:44;;;;;;;0.52;0.20;;;21.40;38.10;22.10;101862.00;;;;5014650;28;20073;-47
2023/11/25 02:55:11;;;;;;;1.63;0.20;;;21.40;38.00;22.10;101870.00;;;;5016132;28;20063;-46
2023/11/25 02:57:43;;;;;;;2.05;0.10;;;21.40;38.00;22.10;101869.00;;;;5014454;28;20116;-45
2023/11/25 03:00:27;;;;;;;2.38;0.10;;;21.40;37.90;22.10;101872.00;;;;5013863;28;20100;-46
2023/11/25 03:03:16;;;;;;;4.75;0.85;;;21.30;37.90;22.10;101856.00;;;;5014088;28;20673;-45
2023/11/25 03:05:49;;;;;;;0.85;0.10;;;21.40;37.90;22.10;101863.00;;;;5007769;28;20591;-47
2023/11/25 03:08:17;;;;;;;0.80;0.10;;;21.30;37.90;22.10;101871.00;;;;5015665;28;20034;-45
2023/11/25 03:10:46;;;;;;;1.52;0.17;;;21.30;37.90;22.10;101872.00;;;;5013192;28;20112;-45
2023/11/25 03:13:12;;;;;;;1.13;0.25;;;21.30;38.00;22.10;101865.00;;;;5005688;28;20064;-46
2023/11/25 03:15:39;;;;;;;1.27;0.20;;;21.30;37.80;22.10;101870.00;;;;5013833;28;20490;-45
2023/11/25 03:18:07;;;;;;;1.75;0.10;;;21.30;37.90;22.10;101859.00;;;;5012285;28;20116;-45
2023/11/25 03:20:34;;;;;;;2.58;0.13;;;21.40;37.90;22.10;101863.00;;;;4997001;28;20449;-45
2023/11/25 03:23:04;;;;;;;0.35;0.10;;;21.40;38.00;22.10;101857.00;;;;4980992;28;20057;-46
2023/11/25 03:25:31;;;;;;;0.63;0.10;;;21.30;38.00;22.10;101860.00;;;;5021611;28;20042;-45
2023/11/25 03:27:58;;;;;;;0.57;0.10;;;21.30;38.00;22.10;101853.00;;;;5021686;28;20069;-45
2023/11/25 03:30:26;;;;;;;0.20;0.20;;;21.30;37.90;22.10;101865.00;;;;5029660;28;20049;-46
2023/11/25 03:32:52;;;;;;;0.50;0.17;;;21.30;37.90;22.10;101870.00;;;;5016093;28;20383;-45
2023/11/25 03:35:18;;;;;;;2.38;0.10;;;21.30;37.90;22.10;101869.00;;;;5004221;28;20038;-46
2023/11/25 03:37:44;;;;;;;1.85;0.10;;;21.30;37.80;22.10;101861.00;;;;5013202;28;20030;-46
2023/11/25 03:40:15;;;;;;;0.95;0.20;;;21.30;37.90;22.10;101862.00;;;;5013514;28;20029;-45
2023/11/25 03:42:45;;;;;;;2.10;0.10;;;21.30;37.90;22.00;101857.00;;;;5021835;28;20150;-45
2023/11/25 03:45:14;;;;;;;2.05;0.10;;;21.30;37.80;22.10;101863.00;;;;5013957;28;20049;-44
2023/11/25 03:47:45;;;;;;;1.00;0.10;;;21.30;37.90;22.00;101869.00;;;;5021493;28;20128;-47
2023/11/25 03:50:12;;;;;;;0.57;0.00;;;21.30;38.00;22.00;101862.00;;;;5038650;28;20045;-46
2023/11/25 03:52:42;;;;;;;2.38;0.10;;;21.30;37.90;22.00;101872.00;;;;5015651;28;20157;-44
2023/11/25 03:55:09;;;;;;;1.95;0.30;;;21.30;37.90;22.00;101865.00;;;;5005691;28;20466;-45
2023/11/25 03:57:39;;;;;;;0.52;0.15;;;21.30;38.60;22.00;101873.00;;;;5005450;28;20033;-45
2023/11/25 04:00:16;;;;;;;0.40;0.13;;;21.30;37.90;22.00;101874.00;;;;5013099;28;20044;-45
2023/11/25 04:02:43;;;;;;;;;;;21.30;38.00;22.00;101879.00;;;;5016111;28;20110;-45
2023/11/25 04:05:11;;;;;;;0.17;0.10;;;21.30;38.30;22.00;101875.00;;;;5012733;28;19972;-46
2023/11/25 04:07:38;;;;;;;0.45;0.10;;;21.20;38.00;22.00;101875.00;;;;5014295;28;20412;-44
2023/11/25 04:10:12;;;;;;;2.85;0.10;;;21.20;38.00;22.00;101874.00;;;;5014113;28;20021;-45
2023/11/25 04:12:43;;;;;;;0.60;0.00;;;21.20;37.90;22.00;101871.00;;;;5005580;28;20056;-45
2023/11/25 04:15:10;;;;;;;0.85;0.10;;;21.20;37.90;22.00;101869.00;;;;5030071;28;20045;-45
2023/11/25 04:17:39;;;;;;;2.53;0.10;;;21.30;37.90;22.00;101869.00;;;;5013452;28;20576;-45
2023/11/25 04:20:13;;;;;;;1.25;0.10;;;21.20;37.90;22.00;101869.00;;;;5013965;28;20037;-46
2023/11/25 04:22:45;;;;;;;1.52;0.10;;;21.20;37.90;22.00;101872.00;;;;5037512;28;20041;-46
2023/11/25 04:25:14;;;;;;;0.55;0.30;;;21.20;37.90;22.00;101865.00;;;;5003933;28;20776;-48
2023/11/25 04:27:44;;;;;;;0.38;0.10;;;21.20;38.00;22.00;101863.00;;;;4996384;28;20113;-44
2023/11/25 04:30:11;;;;;;;0.50;0.10;;;21.20;37.90;22.00;101862.00;;;;5013690;28;20037;-46
2023/11/25 04:32:41;;;;;;;2.28;0.20;;;21.20;37.90;22.00;101874.00;;;;5017601;28;20032;-44
2023/11/25 04:35:08;;;;;;;0.70;0.10;;;21.20;37.90;22.00;101871.00;;;;5017534;28;20048;-44
2023/11/25 04:37:35;;;;;;;0.52;0.30;;;21.20;37.90;22.00;101871.00;;;;5007513;28;20112;-44
2023/11/25 04:40:06;;;;;;;1.95;0.20;;;21.20;37.90;22.00;101863.00;;;;5016634;28;20030;-44
2023/11/25 04:42:32;;;;;;;1.27;0.10;;;21.20;38.00;22.00;101860.00;;;;5017109;28;20048;-44
2023/11/25 04:44:59;;;;;;;0.30;0.20;;;21.20;38.00;22.00;101861.00;;;;5016518;28;20033;-45
2023/11/25 04:47:26;;;;;;;0.52;0.10;;;21.20;38.00;22.00;101873.00;;;;5017498;28;20050;-45
2023/11/25 04:49:53;;;;;;;1.83;0.20;;;21.20;37.90;22.00;101872.00;;;;5017514;28;20057;-48
2023/11/25 04:52:20;;;;;;;2.08;0.45;;;21.20;38.00;22.00;101879.00;;;;5016971;28;20045;-45
2023/11/25 04:54:46;;;;;;;1.35;0.10;;;21.20;37.90;22.00;101878.00;;;;5016437;28;20045;-46
2023/11/25 04:57:15;;;;;;;0.55;0.10;;;21.20;37.90;21.90;101877.00;;;;5016832;28;20042;-46
2023/11/25 04:59:41;;;;;;;0.20;0.10;;;21.20;37.90;22.00;101885.00;;;;5016453;28;20101;-45
2023/11/25 05:02:08;;;;;;;3.45;0.40;;;21.20;38.00;21.90;101871.00;;;;5017614;28;20160;-45
2023/11/25 05:04:34;;;;;;;2.50;0.63;;;21.20;37.90;21.90;101870.00;;;;5016524;28;20072;-47
2023/11/25 05:07:00;;;;;;;1.92;0.10;;;21.20;37.90;21.90;101886.00;;;;5017458;28;20033;-44
2023/11/25 05:09:26;;;;;;;1.75;0.20;;;21.20;37.80;21.90;101881.00;;;;4999778;28;20041;-44
2023/11/25 05:11:53;;;;;;;1.10;0.45;;;21.20;37.90;21.90;101885.00;;;;5017770;28;20025;-43
2023/11/25 05:14:20;;;;;;;2.80;0.20;;;21.20;37.90;21.90;101888.00;;;;5017115;28;20100;-44
2023/11/25 05:16:46;;;;;;;0.35;0.10;;;21.20;37.90;21.90;101884.00;;;;5016914;28;20053;-44
2023/11/25 05:19:13;;;;;;;0.22;0.03;;;21.20;37.90;21.90;101883.00;;;;5015392;28;20041;-43
2023/11/25 05:21:39;;;;;;;1.05;0.10;;;21.20;37.90;21.90;101883.00;;;;5017314;28;20079;-44
2023/11/25 05:24:05;;;;;;;0.30;0.10;;;21.20;38.00;21.90;101886.00;;;;5017209;28;20132;-44
2023/11/25 05:26:31;;;;;;;0.32;0.10;;;21.20;38.00;21.90;101888.00;;;;5031873;28;20563;-45
2023/11/25 05:28:59;;;;;;;2.15;0.10;;;21.10;37.90;21.90;101889.00;;;;5007839;28;20034;-45
2023/11/25 05:31:26;;;;;;;0.80;0.10;;;21.10;37.90;21.90;101884.00;;;;5017065;28;20033;-45
2023/11/25 05:33:51;;;;;;;3.53;0.20;;;21.10;38.00;21.90;101886.00;;;;5017970;28;20041;-47
2023/11/25 05:36:18;;;;;;;1.45;0.40;;;21.20;38.00;21.90;101884.00;;;;5016154;28;20106;-45
2023/11/25 05:38:44;;;;;;;5.50;0.20;;;21.10;38.00;21.90;101876.00;;;;5014886;28;20029;-45
2023/11/25 05:41:13;;;;;;;2.72;0.20;;;21.20;38.00;21.90;101884.00;;;;5006056;28;20090;-45
2023/11/25 05:43:40;;;;;;;1.15;0.30;;;21.20;38.00;21.90;101886.00;;;;5015806;28;20107;-45
2023/11/25 05:46:06;;;;;;;4.20;0.40;;;21.10;38.00;21.90;101884.00;;;;5016247;28;20037;-44
2023/11/25 05:48:32;;;;;;;5.32;1.05;;;21.10;38.00;21.90;101890.00;;;;5016173;28;20037;-43
2023/11/25 05:50:58;;;;;;;3.28;0.93;;;21.10;38.00;21.90;101888.00;;;;5016529;28;20045;-43
2023/11/25 05:53:24;;;;;;;2.38;0.50;;;21.10;38.00;21.90;101886.00;;;;5016404;28;20116;-44
2023/11/25 05:55:50;;;;;;;3.30;0.30;;;21.10;37.90;21.90;101893.00;;;;5016012;28;20041;-44
2023/11/25 05:58:16;;;;;;;1.75;0.35;;;21.10;38.00;21.90;101896.00;;;;5015253;28;20419;-43
2023/11/25 06:00:42;;;;;;;2.70;0.30;;;21.10;38.00;21.90;101891.00;;;;5017101;28;20030;-43
2023/11/25 06:03:08;;;;;;;0.88;0.55;;;21.10;37.90;21.90;101899.00;;;;5016271;28;20046;-45
2023/11/25 06:05:34;;;;;;;3.97;0.60;;;21.10;37.90;21.90;101900.00;;;;4999288;28;20029;-44
2023/11/25 06:08:00;;;;;;;1.27;0.30;;;21.10;38.00;21.90;101899.00;;;;5016679;28;20056;-46
2023/11/25 06:10:26;;;;;;;3.30;0.43;;;21.10;38.00;21.90;101906.00;;;;4998490;28;20041;-46
2023/11/25 06:12:52;;;;;;;1.08;0.20;;;21.10;38.00;21.90;101907.00;;;;5017814;28;20042;-48
2023/11/25 06:15:19;;;;;;;4.65;0.40;;;21.10;38.00;21.90;101907.00;;;;5014817;28;20048;-45
2023/11/25 06:17:46;;;;;;;2.58;0.30;;;21.10;38.00;21.90;101907.00;;;;5016529;28;20178;-46
2023/11/25 06:20:13;;;;;;;4.20;0.80;;;21.10;38.00;21.90;101907.00;;;;5016505;28;20029;-46
2023/11/25 06:22:41;;;;;;;1.20;0.30;;;21.10;38.00;21.90;101897.00;;;;5013593;28;20037;-46
2023/11/25 06:25:08;;;;;;;5.13;0.57;;;21.10;38.00;21.90;101899.00;;;;5014889;28;20030;-46
2023/11/25 06:27:34;;;;;;;1.02;0.20;;;21.10;38.00;21.90;101903.00;;;;5017040;28;20048;-46
2023/11/25 06:29:59;;;;;;;5.32;0.50;;;21.10;38.00;21.90;101908.00;;;;5016597;28;20041;-46
2023/11/25 06:32:27;;;;;;;1.95;0.32;;;21.10;38.00;21.90;101910.00;;;;5015915;28;20757;-47
2023/11/25 06:34:56;;;;;;;3.83;0.30;;;21.10;38.00;21.90;101907.00;;;;5014421;28;20561;-46
2023/11/25 06:37:23;;;;;;;2.92;0.32;;;21.10;38.00;21.90;101906.00;;;;5015629;28;20029;-46
2023/11/25 06:39:49;;;;;;;2.65;0.20;;;21.10;38.00;21.90;101908.00;;;;5013969;28;20040;-46
2023/11/25 06:42:16;;;;;;;1.52;0.20;;;21.10;38.00;21.90;101907.00;;;;5015866;28;20029;-46
2023/11/25 06:44:44;;;;;;;1.45;0.20;;;21.10;38.00;21.90;101908.00;;;;5015403;28;20505;-47
2023/11/25 06:47:11;;;;;;;1.50;0.32;;;21.10;38.00;21.90;101909.00;;;;5013989;28;20512;-45
2023/11/25 06:49:37;;;;;;;2.60;0.30;;;21.10;38.00;21.90;101919.00;;;;5013995;28;20034;-46
2023/11/25 06:52:04;;;;;;;2.53;0.10;;;21.10;38.00;21.80;101921.00;;;;5015096;28;20049;-45
2023/11/25 06:54:31;;;;;;;3.08;0.10;;;21.10;38.00;21.80;101919.00;;;;5015467;28;20095;-45
2023/11/25 06:56:57;;;;;;;1.38;0.30;;;21.00;37.90;21.80;101923.00;;;;5015377;28;20033;-44
2023/11/25 06:59:22;;;;;;;3.05;0.70;;;21.00;38.30;21.80;101922.00;;;;5014836;28;20159;-46
2023/11/25 07:01:48;;;;;;;2.88;0.30;;;21.10;38.00;21.80;101928.00;;;;5005392;28;20040;-46
2023/11/25 07:04:14;;;;;;;2.55;0.35;;;21.10;38.10;21.80;101916.00;;;;5015055;28;20101;-44
2023/11/25 07:06:40;;;;;;;1.60;0.20;;;21.00;37.90;21.80;101919.00;;;;4982722;28;20037;-43
2023/11/25 07:09:06;;;;;;;1.95;0.17;;;21.10;38.00;21.80;101925.00;;;;5015699;28;20045;-44
2023/11/25 07:11:34;;;;;;;3.42;0.57;;;21.00;38.00;21.80;101919.00;;;;5015102;28;20041;-44
2023/11/25 07:13:59;;;;;;;3.20;0.20;;;21.00;38.00;21.80;101917.00;;;;5015162;28;20116;-45
2023/11/25 07:16:25;;;;;;;1.05;0.38;;;21.00;38.00;21.80;101918.00;;;;5015390;28;20125;-45
2023/11/25 07:18:52;;;;;;;2.00;0.40;;;21.00;38.00;21.80;101917.00;;;;5015223;28;20035;-47
2023/11/25 07:21:19;;;;;;;0.77;0.17;;;21.10;38.10;21.80;101919.00;;;;5015043;28;20477;-46
2023/11/25 07:23:45;;;;;;;1.55;0.25;;;21.00;38.10;21.80;101917.00;;;;5015094;28;20044;-44
2023/11/25 07:26:14;;;;;;;0.70;0.10;;;21.00;38.00;21.80;101913.00;;;;5014029;28;20041;-43
2023/11/25 07:28:42;;;;;;;1.63;0.10;;;21.00;38.00;21.80;101911.00;;;;5029890;28;20065;-43
2023/11/25 07:31:11;;;;;;;2.55;0.40;;;21.10;38.10;21.80;101918.00;;;;5015160;28;20041;-42
2023/11/25 07:33:38;;;;;;;1.75;0.20;;;21.00;38.00;21.80;101914.00;;;;5014340;28;20033;-42
2023/11/25 07:36:06;;;;;;;3.03;0.55;;;21.10;38.10;21.80;101909.00;;;;5015050;28;20037;-44
2023/11/25 07:38:32;;;;;;;1.15;0.20;;;21.00;38.00;21.80;101919.00;;;;5015732;28;20064;-42
2023/11/25 07:40:59;;;;;;;1.05;0.35;;;21.00;38.00;21.80;101914.00;;;;5013491;28;20046;-45
2023/11/25 07:43:25;;;;;;;0.98;0.30;;;21.00;38.10;21.80;101915.00;;;;5014957;28;20038;-43
2023/11/25 07:45:51;;;;;;;1.30;0.10;;;21.00;38.00;21.80;101919.00;;;;5013350;28;20037;-41
2023/11/25 07:48:19;;;;;;;1.13;0.20;;;21.00;38.10;21.80;101915.00;;;;5015000;28;20553;-44
2023/11/25 07:50:45;;;;;;;1.38;0.30;;;21.00;38.00;21.80;101923.00;;;;4996989;28;20169;-44
2023/11/25 07:53:14;;;;;;;1.75;0.22;;;21.00;38.00;21.80;101925.00;;;;5014517;28;20068;-46
2023/11/25 07:55:43;;;;;;;1.27;0.50;;;21.00;38.00;21.80;101930.00;;;;5015179;28;20034;-46
2023/11/25 07:58:09;;;;;;;1.67;0.50;;;21.00;38.10;21.80;101931.00;;;;5014415;28;20041;-44
2023/11/25 08:00:35;;;;;;;0.60;0.40;;;21.00;38.00;21.80;101926.00;;;;5015110;28;20482;-44
2023/11/25 08:03:02;;;;;;;0.68;0.57;;;21.00;38.00;21.80;101930.00;;;;5015033;28;20091;-44
2023/11/25 08:05:28;;;;;;;3.65;0.95;;;21.00;38.10;21.80;101931.00;;;;5018000;28;20122;-45
2023/11/25 08:07:55;;;;;;;1.50;0.30;;;21.00;38.10;21.80;101930.00;;;;5018121;28;20123;-43
2023/11/25 08:10:24;;;;;;;1.52;0.57;;;21.00;38.10;21.80;101940.00;;;;5018243;28;20033;-44
2023/11/25 08:12:50;;;;;;;2.10;0.52;;;21.00;38.10;21.80;101938.00;;;;5018541;28;20116;-42
2023/11/25 08:15:17;;;;;;;3.60;1.30;;;21.00;38.00;21.80;101929.00;;;;5018661;28;20045;-43
2023/11/25 08:17:43;;;;;;;2.15;0.50;;;21.00;38.70;21.80;101933.00;;;;5019131;28;20025;-42
2023/11/25 08:20:10;;;;;;;1.33;0.60;;;21.00;38.10;21.80;101937.00;;;;5018169;28;20037;-43
2023/11/25 08:22:38;;;;;;;0.93;0.50;;;21.00;38.10;21.80;101931.00;;;;5018522;28;20049;-42
2023/11/25 08:25:09;;;;;;;2.08;0.38;;;21.00;38.00;21.80;101938.00;;;;5017163;28;20041;-42
2023/11/25 08:27:37;;;;;;;3.08;0.38;;;21.00;38.10;21.80;101933.00;;;;5017629;28;21718;-42
2023/11/25 08:30:08;;;;;;;1.33;0.55;;;21.00;38.10;21.80;101928.00;;;;4969070;28;20755;-43
2023/11/25 08:32:41;;;;;;;0.65;0.20;;;21.00;38.00;21.80;101927.00;;;;5017442;28;20042;-44
2023/11/25 08:35:09;;;;;;;0.95;0.32;;;21.00;38.00;21.80;101923.00;;;;5018630;28;20047;-45
2023/11/25 08:37:38;;;;;;;3.00;0.70;;;21.00;38.00;21.80;101930.00;;;;5017622;28;20022;-43
2023/11/25 08:40:21;;;;;;;1.98;0.63;;;21.00;38.10;21.80;101933.00;;;;5016846;28;20034;-45
2023/11/25 08:42:49;;;;;;;2.55;0.63;;;21.00;38.00;21.80;101928.00;;;;5018158;28;20157;-42
2023/11/25 08:45:15;;;;;;;2.92;0.30;;;21.00;38.00;21.80;101922.00;;;;5017403;28;20328;-42
2023/11/25 08:47:42;;;;;;;0.93;0.30;;;21.00;38.00;21.80;101921.00;;;;5016661;28;20044;-44
2023/11/25 08:50:14;;;;;;;1.50;0.60;;;21.00;38.00;21.80;101915.00;;;;4991940;28;20065;-46
2023/11/25 08:52:40;;;;;;;0.80;0.50;;;21.00;38.00;21.80;101910.00;;;;5018281;28;20057;-43
2023/11/25 08:55:10;;;;;;;1.77;0.50;;;21.00;38.00;21.80;101917.00;;;;5018173;28;20041;-45
2023/11/25 08:57:37;;;;;;;0.77;0.65;;;21.00;38.00;21.80;101923.00;;;;5016886;28;20499;-47
2023/11/25 09:00:15;;;;;;;2.35;0.70;;;21.00;38.50;21.80;101922.00;;;;5018277;28;20033;-45
2023/11/25 09:02:46;;;;;;;1.60;0.45;;;21.00;38.00;21.80;101927.00;;;;5008578;28;20034;-44
2023/11/25 09:05:14;;;;;;;1.55;0.70;;;21.00;38.00;21.80;101925.00;;;;5016333;28;20648;-44
2023/11/25 09:07:42;;;;;;;1.95;0.70;;;21.00;38.10;21.80;101928.00;;;;5017686;28;20057;-42
2023/11/25 09:10:10;;;;;;;3.17;1.15;;;21.00;38.10;21.80;101929.00;;;;5018001;28;20037;-45
2023/11/25 09:12:37;;;;;;;5.10;0.82;;;21.00;38.10;21.80;101929.00;;;;5015720;28;20029;-42
2023/11/25 09:15:06;;;;;;;1.60;0.52;;;21.00;38.10;21.90;101925.00;;;;5017368;28;20041;-42
2023/11/25 09:17:38;;;;;;;3.80;0.57;;;21.00;38.10;21.80;101918.00;;;;5016674;28;20112;-43
2023/11/25 09:20:09;;;;;;;4.10;1.63;;;21.00;38.10;21.90;101921.00;;;;5017430;28;20044;-42
2023/11/25 09:22:37;;;;;;;6.72;1.85;;;21.00;38.10;21.90;101925.00;;;;5017485;28;20086;-42
2023/11/25 09:25:03;;;;;;;1.85;0.60;;;21.00;38.10;21.90;101931.00;;;;5016660;28;20038;-42
2023/11/25 09:27:29;;;;;;;3.33;0.95;;;21.10;38.20;21.90;101930.00;;;;4999753;28;20053;-45
2023/11/25 09:29:55;;;;;;;5.18;1.58;;;21.10;38.20;21.90;101943.00;;;;5015433;28;20037;-46
2023/11/25 09:32:22;;;;;;;5.53;2.28;;;21.10;38.20;21.90;101936.00;;;;5016482;28;20046;-44
2023/11/25 09:34:48;;;;;;;4.80;0.95;;;21.10;38.30;21.90;101931.00;;;;5016579;28;20110;-45
2023/11/25 09:37:15;;;;;;;4.53;1.30;;;21.10;38.40;21.90;101925.00;;;;5017893;28;20104;-44
2023/11/25 09:39:41;;;;;;;2.88;1.00;;;21.10;38.30;21.90;101932.00;;;;5015653;28;20030;-45
2023/11/25 09:42:08;;;;;;;5.93;0.80;;;21.10;38.30;21.90;101928.00;;;;5016854;28;21712;-46
2023/11/25 09:44:34;;;;;;;5.25;1.83;;;21.10;38.30;22.00;101926.00;;;;5016905;28;20040;-46
2023/11/25 09:47:01;;;;;;;3.97;0.88;;;21.10;38.40;22.00;101930.00;;;;5015639;28;20057;-45
2023/11/25 09:49:27;;;;;;;6.28;1.05;;;21.10;38.40;22.00;101930.00;;;;5015425;28;20037;-44
2023/11/25 09:52:00;;;;;;;2.72;1.20;;;21.10;38.40;22.00;101929.00;;;;5015646;28;20052;-44
2023/11/25 09:54:26;;;;;;;3.22;0.52;;;21.10;38.40;22.00;101941.00;;;;5017266;28;20049;-47
2023/11/25 09:56:53;;;;;;;4.15;0.60;;;21.20;38.40;22.00;101938.00;;;;5015358;28;20029;-46
2023/11/25 09:59:19;;;;;;;2.67;1.08;;;21.20;38.50;22.00;101936.00;;;;4999426;28;20045;-46
2023/11/25 10:01:45;;;;;;;2.45;0.60;;;21.20;38.40;22.00;101940.00;;;;5014994;28;20041;-45
2023/11/25 10:04:15;;;;;;;3.35;0.93;;;21.20;38.50;22.00;101938.00;;;;5016083;28;20407;-46
2023/11/25 10:06:42;;;;;;;3.75;1.23;;;21.20;38.40;22.00;101929.00;;;;5015954;28;20096;-45
2023/11/25 10:09:10;;;;;;;5.43;1.48;;;21.20;38.40;22.10;101925.00;;;;5017381;28;20034;-45
2023/11/25 10:11:42;;;;;;;4.53;1.50;;;21.20;38.40;22.10;101936.00;;;;5016590;28;20039;-45
2023/11/25 10:14:17;;;;;;;4.30;1.08;;;21.20;38.50;22.10;101932.00;;;;5016593;28;20056;-47
2023/11/25 10:16:45;;;;;;;3.70;0.90;;;21.30;38.50;22.10;101925.00;;;;5014690;28;20064;-46
2023/11/25 10:19:22;;;;;;;3.90;0.85;;;21.20;38.50;22.10;101922.00;;;;5016685;28;20033;-47
2023/11/25 10:21:50;;;;;;;3.05;0.82;;;21.30;38.60;22.10;101925.00;;;;5016067;28;20036;-45
2023/11/25 10:24:21;;;;;;;3.10;0.95;;;21.30;38.60;22.10;101927.00;;;;5016428;28;20034;-45
2023/11/25 10:26:50;;;;;;;2.20;0.75;;;21.30;39.20;22.10;101926.00;;;;5016211;28;20029;-44
2023/11/25 10:29:20;;;;;;;2.30;0.93;;;21.30;38.70;22.10;101927.00;;;;5015601;28;20037;-44
2023/11/25 10:31:55;;;;;;;1.77;0.80;;;21.30;38.70;22.20;101925.00;;;;5006193;28;20044;-43
2023/11/25 10:34:24;;;;;;;3.03;0.55;;;21.30;38.60;22.20;101916.00;;;;5014574;28;20382;-43
2023/11/25 10:36:50;;;;;;;1.00;0.60;;;21.30;38.60;22.20;101918.00;;;;5015083;28;20414;-45
2023/11/25 10:39:20;;;;;;;4.63;1.17;;;21.30;38.60;22.20;101915.00;;;;5015313;28;20033;-44
2023/11/25 10:41:51;;;;;;;2.50;1.45;;;21.30;38.60;22.20;101908.00;;;;5015208;28;20056;-42
2023/11/25 10:44:18;;;;;;;3.70;0.82;;;21.40;38.70;22.20;101906.00;;;;5030294;28;20044;-43
2023/11/25 10:46:44;;;;;;;2.95;0.43;;;21.40;38.60;22.30;101909.00;;;;5014326;28;20179;-46
2023/11/25 10:49:11;;;;;;;2.85;0.60;;;21.40;38.60;22.30;101903.00;;;;5015783;28;20106;-45